Time;durP1;ratioP1;P1;durP2;ratioP2;P2;SDS_P1;SDS_P2;PMS_P1;PMS_P2;Temp;Humidity;BMP_temperature;BMP_pressure;BME280_temperature;BME280_humidity;BME280_pressure;Samples;Min_cycle;Max_cycle;Signal;HPM_P1;HPM_P2
2022/08/23 00:02:25;;;;;;;;;4.75;4.75;;;;;21.71;58.17;101402.22;4919448;29;8882;-67
2022/08/23 00:04:53;;;;;;;;;6.75;6.75;;;;;21.72;58.21;101409.34;4932141;29;8952;-66
2022/08/23 00:07:40;;;;;;;;;6.00;5.00;;;;;21.72;58.33;101405.78;4898110;29;9651;-67
2022/08/23 00:10:09;;;;;;;;;5.00;5.00;;;;;21.71;58.27;101399.47;4902795;29;8829;-67
2022/08/23 00:12:36;;;;;;;;;5.75;4.25;;;;;21.71;58.72;101404.09;4939578;29;8843;-67
2022/08/23 00:15:04;;;;;;;;;4.00;4.00;;;;;21.70;58.69;101400.53;4902835;29;8868;-66
2022/08/23 00:17:32;;;;;;;;;6.00;6.00;;;;;21.68;58.88;101402.72;4916475;29;8891;-66
2022/08/23 00:20:06;;;;;;;;;6.00;6.00;;;;;21.67;59.01;101401.06;4916627;29;8967;-67
2022/08/23 00:22:32;;;;;;;;;5.50;4.00;;;;;21.65;59.19;101402.41;4915826;29;8848;-66
2022/08/23 00:24:59;;;;;;;;;6.00;6.00;;;;;21.63;59.35;101399.94;4911065;29;9663;-67
2022/08/23 00:27:25;;;;;;;;;6.50;6.50;;;;;21.61;59.35;101393.84;4913941;29;8849;-67
2022/08/23 00:29:54;;;;;;;;;5.25;5.25;;;;;21.58;59.53;101388.88;4914913;29;8911;-67
2022/08/23 00:32:30;;;;;;;;;5.00;5.00;;;;;21.54;59.71;101390.47;4909376;29;8844;-67
2022/08/23 00:34:58;;;;;;;;;6.00;6.00;;;;;21.50;59.88;101392.06;4911937;29;8907;-67
2022/08/23 00:37:26;;;;;;;;;6.00;6.00;;;;;21.45;59.99;101386.53;4906264;29;8841;-67
2022/08/23 00:39:52;;;;;;;;;5.50;5.50;;;;;21.42;60.23;101403.47;4911155;29;9647;-66
2022/08/23 00:48:06;;;;;;;;;8.25;5.75;;;;;21.28;60.32;101397.50;4912127;29;9616;-66
2022/08/23 00:50:41;;;;;;;;;7.25;7.25;;;;;21.26;60.30;101396.06;4912790;29;8833;-67
2022/08/23 00:53:19;;;;;;;;;5.00;5.00;;;;;21.24;60.34;101397.16;4915987;29;8857;-67
2022/08/23 00:55:48;;;;;;;;;7.00;7.00;;;;;21.23;60.24;101390.03;4914122;29;8955;-67
2022/08/23 00:58:17;;;;;;;;;8.75;7.50;;;;;21.21;60.49;101394.09;4911790;29;8907;-66
2022/08/23 01:00:45;;;;;;;;;4.00;4.00;;;;;21.20;60.40;101385.06;4915192;29;8927;-67
2022/08/23 01:03:13;;;;;;;;;6.00;6.00;;;;;21.21;60.24;101388.63;4927619;29;8931;-67
2022/08/23 01:05:51;;;;;;;;;6.25;4.00;;;;;21.21;60.18;101391.38;4911357;29;8868;-67
2022/08/23 01:08:22;;;;;;;;;6.50;5.25;;;;;21.20;60.42;101392.44;4941651;29;8859;-66
2022/08/23 01:10:56;;;;;;;;;8.00;8.00;;;;;21.19;60.02;101379.84;4910034;29;8920;-67
2022/08/23 01:13:31;;;;;;;;;5.25;5.25;;;;;21.18;60.36;101389.94;4916008;29;8868;-66
2022/08/23 01:16:06;;;;;;;;;7.00;5.50;;;;;21.16;60.75;101385.81;4913491;29;8963;-66
2022/08/23 01:18:33;;;;;;;;;5.75;5.75;;;;;21.14;60.57;101383.31;4911122;29;8864;-66
2022/08/23 01:21:20;;;;;;;;;5.00;5.00;;;;;21.15;60.58;101393.22;4913624;29;8915;-66
2022/08/23 01:23:54;;;;;;;;;6.50;6.50;;;;;21.12;60.53;101388.22;4918572;29;8840;-67
2022/08/23 01:26:23;;;;;;;;;6.75;6.75;;;;;21.10;60.69;101392.28;4916033;29;8903;-66
2022/08/23 01:28:52;;;;;;;;;6.75;5.00;;;;;21.09;60.69;101390.63;4940922;29;9638;-66
2022/08/23 01:31:22;;;;;;;;;8.00;8.00;;;;;21.07;60.81;101395.53;4914801;29;8860;-66
2022/08/23 01:33:55;;;;;;;;;8.00;7.00;;;;;21.03;60.86;101395.22;4911989;29;8872;-65
2022/08/23 01:36:22;;;;;;;;;7.50;7.50;;;;;21.00;61.07;101392.97;4916182;29;8860;-66
2022/08/23 01:38:51;;;;;;;;;7.25;7.25;;;;;20.97;61.21;101391.56;4914658;29;8837;-65
2022/08/23 01:41:18;;;;;;;;;6.75;6.75;;;;;20.95;61.12;101391.00;4916534;29;8994;-65
2022/08/23 01:43:45;;;;;;;;;9.75;9.75;;;;;20.93;61.39;101392.31;4917305;29;8916;-66
2022/08/23 01:46:18;;;;;;;;;7.75;7.75;;;;;20.91;61.25;101391.75;4911844;29;8995;-65
2022/08/23 01:48:47;;;;;;;;;8.75;8.75;;;;;20.88;61.35;101394.97;4903621;29;8887;-65
2022/08/23 01:51:17;;;;;;;;;8.00;8.00;;;;;20.84;61.44;101393.81;4911140;29;8852;-65
2022/08/23 01:53:48;;;;;;;;;9.00;8.00;;;;;20.81;61.51;101389.66;4912094;29;9666;-65
2022/08/23 01:56:19;;;;;;;;;7.25;7.25;;;;;20.80;61.62;101396.22;4913991;29;8943;-65
2022/08/23 01:59:08;;;;;;;;;10.00;8.75;;;;;20.79;61.42;101388.25;4905944;29;9596;-66
2022/08/23 02:01:39;;;;;;;;;8.00;8.00;;;;;20.76;61.51;101397.78;4911118;29;8986;-66
2022/08/23 02:04:06;;;;;;;;;6.25;6.25;;;;;20.75;61.57;101401.59;4912282;29;8871;-66
2022/08/23 02:06:33;;;;;;;;;7.75;7.75;;;;;20.72;61.62;101396.63;4912205;29;8844;-68
2022/08/23 02:09:03;;;;;;;;;9.00;8.25;;;;;20.67;61.70;101402.84;4944828;28;8821;-66
2022/08/23 02:11:37;;;;;;;;;8.00;8.00;;;;;20.67;61.63;101396.56;4938537;28;8860;-65
2022/08/23 02:14:07;;;;;;;;;11.25;9.50;;;;;20.67;61.78;101391.91;4913277;29;8857;-65
2022/08/23 02:16:46;;;;;;;;;7.25;7.25;;;;;20.67;61.74;101399.28;4911558;29;8963;-64
2022/08/23 02:19:30;;;;;;;;;9.25;9.00;;;;;20.67;61.82;101394.63;4906744;29;8860;-65
2022/08/23 02:21:57;;;;;;;;;13.50;9.50;;;;;20.64;61.72;101400.59;4937157;28;8849;-65
2022/08/23 02:24:24;;;;;;;;;9.50;9.50;;;;;20.61;61.77;101392.06;4914877;29;8935;-65
2022/08/23 02:26:54;;;;;;;;;5.00;5.00;;;;;20.59;61.76;101392.31;4937520;28;8852;-65
2022/08/23 02:29:24;;;;;;;;;9.00;8.00;;;;;20.58;61.81;101393.41;4912894;29;8899;-65
2022/08/23 02:31:52;;;;;;;;;4.00;4.00;;;;;20.58;61.83;101390.66;4908696;29;8929;-66
2022/08/23 02:34:19;;;;;;;;;7.00;7.00;;;;;20.57;61.75;101397.19;4906165;29;8879;-66
2022/08/23 02:36:46;;;;;;;;;11.50;10.00;;;;;20.56;61.71;101406.47;4913591;29;8955;-66
2022/08/23 02:39:15;;;;;;;;;7.00;7.00;;;;;20.57;61.84;101408.13;4916516;29;8948;-65
2022/08/23 02:41:42;;;;;;;;;11.50;11.00;;;;;20.54;61.70;101416.84;4925675;29;8852;-64
2022/08/23 02:44:10;;;;;;;;;7.50;7.50;;;;;20.53;61.71;101428.00;4915307;29;8841;-66
2022/08/23 02:46:40;;;;;;;;;7.00;7.00;;;;;20.54;61.74;101416.00;4912651;29;8856;-67
2022/08/23 02:49:07;;;;;;;;;7.50;7.50;;;;;20.53;61.83;101422.53;4930966;29;8840;-67
2022/08/23 02:51:33;;;;;;;;;7.75;7.75;;;;;20.52;61.89;101420.91;4916930;29;8962;-67
2022/08/23 02:54:00;;;;;;;;;8.00;7.25;;;;;20.51;62.02;101420.06;4916198;29;8964;-66
2022/08/23 02:56:27;;;;;;;;;7.75;7.75;;;;;20.50;61.94;101423.88;4910816;29;9553;-67
2022/08/23 02:58:55;;;;;;;;;8.00;8.00;;;;;20.50;61.92;101423.88;4938747;29;8862;-68
2022/08/23 03:01:26;;;;;;;;;9.00;9.00;;;;;20.51;62.17;101414.59;4944818;29;8875;-67
2022/08/23 03:03:59;;;;;;;;;9.50;9.50;;;;;20.49;61.98;101412.09;4914393;29;8832;-65
2022/08/23 03:06:26;;;;;;;;;8.50;8.50;;;;;20.48;62.03;101412.31;4915650;29;8991;-65
2022/08/23 03:08:55;;;;;;;;;7.50;7.50;;;;;20.46;62.20;101409.84;4914933;29;8845;-66
2022/08/23 03:11:23;;;;;;;;;9.50;9.00;;;;;20.45;62.31;101419.09;4916100;29;8840;-66
2022/08/23 03:13:53;;;;;;;;;9.00;9.00;;;;;20.43;62.30;101420.44;4917543;29;8876;-66
2022/08/23 03:16:21;;;;;;;;;10.00;9.50;;;;;20.41;62.39;101412.47;4914310;29;8824;-67
2022/08/23 03:18:49;;;;;;;;;6.00;6.00;;;;;20.41;62.29;101419.84;4902762;29;8880;-66
2022/08/23 03:21:16;;;;;;;;;7.50;7.50;;;;;20.41;62.23;101419.84;4911109;29;8872;-67
2022/08/23 03:23:44;;;;;;;;;8.25;7.75;;;;;20.41;62.37;101419.84;4914266;29;8852;-66
2022/08/23 03:26:12;;;;;;;;;8.00;8.00;;;;;20.41;62.17;101419.84;4915188;29;8856;-67
2022/08/23 03:28:43;;;;;;;;;9.00;7.75;;;;;20.42;62.21;101427.00;4947532;29;8840;-66
2022/08/23 03:31:13;;;;;;;;;11.00;9.50;;;;;20.42;62.26;101432.47;4941269;29;9008;-66
2022/08/23 03:33:49;;;;;;;;;8.75;8.75;;;;;20.42;62.52;101433.28;4909226;29;8920;-66
2022/08/23 03:36:16;;;;;;;;;8.25;8.25;;;;;20.42;62.30;101435.19;4915332;29;8871;-67
2022/08/23 03:38:44;;;;;;;;;6.50;6.50;;;;;20.43;62.35;101429.47;4913603;29;8852;-66
2022/08/23 03:41:11;;;;;;;;;8.75;8.25;;;;;20.43;62.28;101426.72;4914582;29;8828;-66
2022/08/23 03:43:38;;;;;;;;;9.50;9.00;;;;;20.44;62.38;101427.56;4912239;29;8845;-66
2022/08/23 03:46:06;;;;;;;;;8.75;8.00;;;;;20.45;62.25;101421.00;4915080;29;8970;-66
2022/08/23 03:48:36;;;;;;;;;10.75;7.75;;;;;20.46;62.15;101428.16;4936984;29;8867;-66
2022/08/23 03:51:03;;;;;;;;;8.50;6.75;;;;;20.47;62.21;101427.06;4909455;29;9566;-66
2022/08/23 03:53:30;;;;;;;;;8.00;7.00;;;;;20.46;62.19;101428.97;4907564;29;8864;-66
2022/08/23 03:55:56;;;;;;;;;6.00;6.00;;;;;20.46;62.21;101425.41;4929166;29;8978;-67
2022/08/23 03:58:24;;;;;;;;;11.25;8.00;;;;;20.46;62.27;101422.69;4912461;29;8860;-67
2022/08/23 04:00:51;;;;;;;;;9.67;8.67;;;;;20.44;62.44;101422.09;4914826;29;8845;-67
2022/08/23 04:03:18;;;;;;;;;10.75;9.00;;;;;20.42;62.31;101418.78;4915266;29;8973;-66
2022/08/23 04:06:02;;;;;;;;;9.00;8.50;;;;;20.40;62.37;101419.00;4913849;29;8865;-67
2022/08/23 04:08:30;;;;;;;;;8.75;8.75;;;;;20.39;62.42;101420.09;4911300;29;8864;-66
2022/08/23 04:11:01;;;;;;;;;7.75;7.25;;;;;20.39;62.71;101417.34;4945051;29;8844;-66
2022/08/23 04:13:28;;;;;;;;;9.00;9.00;;;;;20.39;62.75;101422.00;4915374;29;8848;-66
2022/08/23 04:15:57;;;;;;;;;9.75;9.75;;;;;20.37;62.69;101419.50;4914346;29;8835;-66
2022/08/23 04:18:24;;;;;;;;;9.25;9.25;;;;;20.37;62.76;101429.59;4935601;28;8946;-66
2022/08/23 04:20:51;;;;;;;;;8.25;7.25;;;;;20.36;62.95;101427.97;4914116;29;8858;-66
2022/08/23 04:23:20;;;;;;;;;8.00;8.00;;;;;20.36;63.01;101427.97;4914387;29;8840;-66
2022/08/23 04:25:52;;;;;;;;;9.75;9.75;;;;;20.35;62.94;101426.31;4914851;29;8916;-66
2022/08/23 04:28:19;;;;;;;;;7.75;7.25;;;;;20.36;63.05;101419.75;4913625;29;8853;-66
2022/08/23 04:30:46;;;;;;;;;8.75;8.75;;;;;20.36;63.21;101419.75;4913472;29;9573;-67
2022/08/23 04:33:13;;;;;;;;;7.50;7.50;;;;;20.38;62.94;101421.19;4914228;29;8900;-64
2022/08/23 04:35:44;;;;;;;;;7.00;7.00;;;;;20.39;63.01;101424.75;4915288;29;9620;-65
2022/08/23 04:38:11;;;;;;;;;7.75;7.75;;;;;20.38;63.26;101421.19;4911560;29;8891;-64
2022/08/23 04:43:41;;;;;;;;;8.00;8.00;;;;;20.39;63.19;101430.22;4912929;29;10774;-65
2022/08/23 04:46:12;;;;;;;;;6.00;5.00;;;;;20.38;63.30;101426.66;4912782;29;8860;-66
2022/08/23 04:48:39;;;;;;;;;8.50;7.75;;;;;20.37;63.37;101427.69;4913970;29;8875;-67
2022/08/23 04:51:05;;;;;;;;;8.25;8.25;;;;;20.39;63.34;101430.22;4913395;29;8876;-66
2022/08/23 04:53:35;;;;;;;;;6.75;6.75;;;;;20.40;63.51;101431.88;4903715;29;8926;-67
2022/08/23 04:56:25;;;;;;;;;9.25;8.00;;;;;20.42;63.32;101432.47;4908628;29;8828;-67
2022/08/23 04:58:52;;;;;;;;;7.50;6.75;;;;;20.44;63.47;101430.28;4935372;29;8998;-67
2022/08/23 05:01:18;;;;;;;;;5.50;5.50;;;;;20.46;63.15;101433.63;4912270;29;8876;-67
2022/08/23 05:03:46;;;;;;;;;6.25;6.25;;;;;20.48;63.25;101434.19;4913220;29;8851;-67
2022/08/23 05:06:13;;;;;;;;;7.50;7.00;;;;;20.50;62.89;101437.56;4913400;29;8838;-67
2022/08/23 05:08:40;;;;;;;;;9.00;8.25;;;;;20.54;63.21;101435.13;4913140;29;8849;-67
2022/08/23 05:11:10;;;;;;;;;8.00;8.00;;;;;20.55;63.38;101436.81;4911827;29;8886;-67
2022/08/23 05:13:39;;;;;;;;;7.00;7.00;;;;;20.56;63.40;101444.78;4914712;29;8857;-65
2022/08/23 05:16:07;;;;;;;;;5.25;5.25;;;;;20.55;63.69;101445.84;4915403;29;8832;-65
2022/08/23 05:18:39;;;;;;;;;3.25;3.00;;;;;20.54;63.63;101449.66;4914326;29;8864;-67
2022/08/23 05:21:07;;;;;;;;;8.25;8.25;;;;;20.54;63.88;101446.94;4913217;29;9598;-66
2022/08/23 05:23:33;;;;;;;;;6.50;6.50;;;;;20.56;63.91;101452.97;4912697;29;8916;-65
2022/08/23 05:26:04;;;;;;;;;7.25;6.75;;;;;20.56;63.88;101452.16;4940383;29;8840;-65
2022/08/23 05:28:40;;;;;;;;;6.25;6.25;;;;;20.57;63.88;101448.34;4913434;29;9586;-65
2022/08/23 05:31:13;;;;;;;;;7.00;7.00;;;;;20.56;63.98;101450.25;4911886;29;8833;-65
2022/08/23 05:33:45;;;;;;;;;8.00;8.00;;;;;20.56;64.04;101452.16;4936495;29;8855;-65
2022/08/23 05:36:15;;;;;;;;;7.00;7.00;;;;;20.55;64.19;101456.78;4911010;29;8837;-65
2022/08/23 05:38:43;;;;;;;;;7.75;7.50;;;;;20.54;64.33;101452.41;4919429;29;8912;-65
2022/08/23 05:41:10;;;;;;;;;7.50;7.50;;;;;20.54;64.36;101459.75;4935807;29;8902;-65
2022/08/23 05:43:37;;;;;;;;;9.25;8.25;;;;;20.53;64.56;101467.13;4910666;29;8853;-66
2022/08/23 05:46:07;;;;;;;;;10.00;9.75;;;;;20.55;64.67;101472.38;4913408;29;8911;-66
2022/08/23 05:48:45;;;;;;;;;6.50;6.50;;;;;20.56;64.75;101465.81;4911292;29;8959;-66
2022/08/23 05:51:27;;;;;;;;;9.00;9.00;;;;;20.59;64.72;101473.53;4909743;29;8845;-66
2022/08/23 05:53:57;;;;;;;;;7.00;7.00;;;;;20.60;64.69;101473.28;4909308;29;8845;-67
2022/08/23 05:56:25;;;;;;;;;6.75;5.50;;;;;20.62;64.46;101470.28;4906113;29;9645;-67
2022/08/23 05:58:54;;;;;;;;;6.00;6.00;;;;;20.65;64.54;101464.34;4905183;29;8851;-67
2022/08/23 06:01:27;;;;;;;;;8.50;8.50;;;;;20.69;64.63;101470.97;4938937;29;9572;-64
2022/08/23 06:04:02;;;;;;;;;9.00;6.50;;;;;20.70;64.61;101470.75;4906077;29;8892;-69
2022/08/23 06:06:30;;;;;;;;;8.00;8.00;;;;;20.72;64.58;101473.22;4942524;29;8852;-67
2022/08/23 06:09:07;;;;;;;;;5.75;5.25;;;;;20.75;64.45;101475.47;4920202;29;8836;-64
2022/08/23 06:11:36;;;;;;;;;8.00;8.00;;;;;20.77;64.36;101467.00;4911596;29;8863;-66
2022/08/23 06:14:07;;;;;;;;;6.50;6.50;;;;;20.80;64.24;101472.81;4902360;29;8857;-67
2022/08/23 06:16:43;;;;;;;;;10.75;8.75;;;;;20.83;64.09;101469.59;4919354;29;8849;-66
2022/08/23 06:19:13;;;;;;;;;6.25;5.25;;;;;20.87;64.04;101475.41;4922046;29;8829;-65
2022/08/23 06:21:46;;;;;;;;;7.00;7.00;;;;;20.91;63.93;101469.19;4918339;29;8871;-65
2022/08/23 06:24:15;;;;;;;;;7.00;6.50;;;;;20.96;63.96;101466.53;4920782;29;8877;-65
2022/08/23 06:26:50;;;;;;;;;5.25;5.25;;;;;20.99;63.67;101468.78;4898636;29;8844;-65
2022/08/23 06:29:18;;;;;;;;;5.50;5.50;;;;;21.02;63.62;101466.63;4933586;29;9776;-66
2022/08/23 06:31:51;;;;;;;;;7.00;7.00;;;;;21.06;63.57;101471.34;4912410;29;8876;-65
2022/08/23 06:34:32;;;;;;;;;6.00;6.00;;;;;21.08;63.13;101468.38;4895922;29;8899;-65
2022/08/23 06:37:18;;;;;;;;;6.25;4.50;;;;;21.07;63.05;101469.47;4897305;29;8860;-65
2022/08/23 06:39:59;;;;;;;;;8.75;7.75;;;;;21.10;62.86;101479.88;4916283;29;8879;-66
2022/08/23 06:42:47;;;;;;;;;7.50;7.50;;;;;21.06;62.12;101476.81;4916184;29;9649;-65
2022/08/23 06:45:18;;;;;;;;;8.25;8.25;;;;;21.05;61.92;101477.06;4904713;29;8888;-65
2022/08/23 06:47:56;;;;;;;;;7.50;5.50;;;;;21.04;61.55;101478.97;4901929;29;8852;-66
2022/08/23 06:50:22;;;;;;;;;8.25;8.25;;;;;21.04;61.49;101480.91;4917659;29;8841;-67
2022/08/23 06:53:09;;;;;;;;;8.00;8.00;;;;;21.05;61.17;101479.81;4907982;29;8864;-69
2022/08/23 06:55:46;;;;;;;;;8.25;8.25;;;;;21.06;61.16;101478.72;4909482;29;8851;-66
2022/08/23 06:58:32;;;;;;;;;8.00;8.00;;;;;21.07;61.47;101478.50;4909009;29;8969;-67
2022/08/23 07:01:20;;;;;;;;;7.50;7.50;;;;;21.06;61.38;101487.75;4929760;29;8975;-68
2022/08/23 07:04:18;;;;;;;;;8.50;7.75;;;;;21.10;61.48;101485.34;4904696;29;8927;-66
2022/08/23 07:07:06;;;;;;;;;8.25;8.25;;;;;21.13;61.39;101482.13;4914077;29;8824;-66
2022/08/23 07:09:39;;;;;;;;;6.25;6.25;;;;;21.17;61.38;101488.78;4915972;29;9538;-66
2022/08/23 07:12:06;;;;;;;;;6.25;6.25;;;;;21.19;60.98;101492.94;4914083;29;8860;-67
2022/08/23 07:14:36;;;;;;;;;7.50;5.75;;;;;21.23;60.87;101491.34;4940871;29;8878;-66
2022/08/23 07:17:02;;;;;;;;;11.25;10.50;;;;;21.26;60.11;101502.88;4915088;29;8856;-66
2022/08/23 07:19:32;;;;;;;;;11.25;11.25;;;;;21.26;59.70;101500.97;4906000;29;8868;-66
2022/08/23 07:22:01;;;;;;;;;9.00;9.00;;;;;21.30;59.32;101504.03;4914199;29;8860;-66
2022/08/23 07:24:28;;;;;;;;;9.00;8.00;;;;;21.34;59.38;101495.09;4917936;29;9439;-66
2022/08/23 07:27:05;;;;;;;;;13.00;12.75;;;;;21.36;58.70;101503.91;4920915;29;8858;-66
2022/08/23 07:29:35;;;;;;;;;13.00;10.25;;;;;21.41;58.19;101505.88;4927147;29;8858;-67
2022/08/23 07:32:03;;;;;;;;;11.25;8.75;;;;;21.46;57.72;101512.25;4919309;29;8848;-66
2022/08/23 07:34:29;;;;;;;;;8.50;7.50;;;;;21.53;57.66;101509.34;4921485;29;8873;-66
2022/08/23 07:36:56;;;;;;;;;9.00;9.00;;;;;21.60;57.87;101517.41;4926860;29;8871;-67
2022/08/23 07:39:25;;;;;;;;;6.25;6.25;;;;;21.64;57.90;101522.13;4916224;29;8844;-66
2022/08/23 07:41:52;;;;;;;;;6.25;6.25;;;;;21.68;58.15;101517.81;4929331;29;8841;-67
2022/08/23 07:44:19;;;;;;;;;5.00;4.75;;;;;21.73;58.12;101517.06;4916189;29;8858;-67
2022/08/23 07:46:53;;;;;;;;;5.50;5.50;;;;;21.77;58.04;101520.13;4926198;29;8980;-67
2022/08/23 07:49:19;;;;;;;;;12.50;7.75;;;;;21.79;57.48;101526.16;4937759;29;8884;-67
2022/08/23 07:51:50;;;;;;;;;7.25;7.00;;;;;21.80;57.16;101519.63;4918419;29;8864;-66
2022/08/23 07:54:20;;;;;;;;;10.50;9.00;;;;;21.88;57.38;101525.50;4913842;29;8849;-66
2022/08/23 07:56:58;;;;;;;;;9.00;6.25;;;;;21.93;57.25;101527.47;4914141;29;8853;-67
2022/08/23 07:59:44;;;;;;;;;8.75;7.75;;;;;21.97;56.99;101529.44;4928493;29;8894;-67
2022/08/23 08:02:38;;;;;;;;;6.00;6.00;;;;;22.01;57.29;101527.03;4909858;29;8915;-66
2022/08/23 08:05:11;;;;;;;;;2.75;2.75;;;;;22.06;57.04;101523.53;4909405;29;8836;-66
2022/08/23 08:07:37;;;;;;;;;4.00;4.00;;;;;22.12;57.14;101527.97;4911557;29;8939;-66
2022/08/23 08:10:04;;;;;;;;;3.00;3.00;;;;;22.17;56.57;101528.09;4913608;29;8843;-66
2022/08/23 08:12:32;;;;;;;;;5.50;5.50;;;;;22.19;56.37;101529.47;4910956;29;8829;-66
2022/08/23 08:15:07;;;;;;;;;6.75;6.25;;;;;22.25;56.02;101535.88;4910086;29;8865;-66
2022/08/23 08:17:37;;;;;;;;;6.50;6.50;;;;;22.26;56.08;101534.78;4905945;29;8856;-66
2022/08/23 08:20:18;;;;;;;;;5.00;4.50;;;;;22.29;56.54;101544.44;4915594;29;8884;-67
2022/08/23 08:23:03;;;;;;;;;5.25;5.00;;;;;22.31;56.56;101542.25;4913835;29;8856;-67
2022/08/23 08:25:32;;;;;;;;;5.25;3.75;;;;;22.37;57.09;101538.50;4913641;29;8978;-65
2022/08/23 08:28:02;;;;;;;;;4.00;4.00;;;;;22.41;56.55;101534.97;4929043;29;8856;-65
2022/08/23 08:30:29;;;;;;;;;3.50;3.50;;;;;22.47;56.52;101544.09;4927222;29;8864;-65
2022/08/23 08:32:56;;;;;;;;;4.00;4.00;;;;;22.50;56.60;101548.25;4903392;29;8870;-66
2022/08/23 08:35:23;;;;;;;;;1.50;1.50;;;;;22.56;56.57;101548.03;4915342;29;8951;-66
2022/08/23 08:37:50;;;;;;;;;2.75;2.75;;;;;22.60;56.60;101554.66;4905209;29;9632;-65
2022/08/23 08:40:26;;;;;;;;;4.00;3.50;;;;;22.65;56.00;101560.22;4902290;29;8847;-66
2022/08/23 08:43:10;;;;;;;;;5.00;5.00;;;;;22.71;56.20;101558.34;4907781;29;8939;-66
2022/08/23 08:45:52;;;;;;;;;3.00;3.00;;;;;22.83;56.05;101552.72;4911473;29;9000;-65
2022/08/23 08:48:28;;;;;;;;;6.00;6.00;;;;;22.92;56.01;101559.41;4906680;29;8868;-66
2022/08/23 08:51:00;;;;;;;;;5.50;5.00;;;;;22.95;56.00;101558.91;4914721;29;8833;-65
2022/08/23 08:53:35;;;;;;;;;3.00;3.00;;;;;22.99;56.09;101550.97;4909607;29;8857;-66
2022/08/23 08:56:31;;;;;;;;;4.25;3.00;;;;;23.01;55.62;101559.78;4937204;29;8848;-67
2022/08/23 08:59:47;;;;;;;;;4.50;3.75;;;;;23.06;56.13;101565.34;4906973;29;8860;-66
2022/08/23 09:02:18;;;;;;;;;3.00;3.00;;;;;23.11;55.90;101557.97;4896637;29;8927;-66
2022/08/23 09:05:07;;;;;;;;;3.00;3.00;;;;;23.16;55.37;101555.25;4909828;29;8856;-67
2022/08/23 09:08:24;;;;;;;;;4.25;4.00;;;;;23.17;55.21;101567.06;4923450;29;8855;-67
2022/08/23 09:11:00;;;;;;;;;3.75;3.75;;;;;23.27;54.94;101563.59;4905547;29;8835;-66
2022/08/23 09:13:52;;;;;;;;;3.00;3.00;;;;;23.32;54.92;101561.72;4943833;29;8836;-67
2022/08/23 09:16:52;;;;;;;;;3.00;3.00;;;;;23.37;54.81;101558.16;4944369;29;8850;-67
2022/08/23 09:19:21;;;;;;;;;3.25;3.00;;;;;23.39;54.28;101559.56;4928373;29;8923;-66
2022/08/23 09:22:04;;;;;;;;;2.00;2.00;;;;;23.45;54.14;101558.50;4912015;29;8848;-66
2022/08/23 09:24:32;;;;;;;;;4.75;3.00;;;;;23.47;54.58;101552.78;4913683;29;9026;-66
2022/08/23 09:27:08;;;;;;;;;5.00;5.00;;;;;23.52;54.38;101551.97;4937106;29;8951;-66
2022/08/23 09:29:37;;;;;;;;;4.00;4.00;;;;;23.55;53.79;101555.03;4913465;29;8859;-66
2022/08/23 09:32:24;;;;;;;;;2.75;2.75;;;;;23.61;54.22;101544.88;4912147;29;8840;-67
2022/08/23 09:34:51;;;;;;;;;3.00;3.00;;;;;23.67;54.21;101541.13;4912851;29;9627;-68
2022/08/23 09:37:21;;;;;;;;;4.25;3.00;;;;;23.74;53.74;101543.63;4911351;29;9563;-67
2022/08/23 09:39:52;;;;;;;;;2.75;2.75;;;;;23.80;53.03;101553.59;4904443;29;8861;-66
2022/08/23 09:42:37;;;;;;;;;3.00;3.00;;;;;23.81;52.65;101549.72;4912819;29;8825;-66
2022/08/23 09:45:29;;;;;;;;;3.50;3.50;;;;;23.85;52.85;101553.59;4911193;29;8848;-66
2022/08/23 09:48:03;;;;;;;;;3.00;3.00;;;;;23.88;52.88;101556.66;4895851;29;8868;-67
2022/08/23 09:50:38;;;;;;;;;2.75;2.75;;;;;23.91;52.76;101545.13;4899462;29;8856;-66
2022/08/23 09:53:09;;;;;;;;;4.00;4.00;;;;;23.93;52.15;101550.34;4896903;29;8844;-66
2022/08/23 09:55:46;;;;;;;;;5.00;3.00;;;;;24.00;52.49;101545.44;4907740;29;8853;-67
2022/08/23 09:58:39;;;;;;;;;4.00;3.00;;;;;24.05;52.31;101550.97;4911975;29;8910;-67
2022/08/23 10:01:18;;;;;;;;;2.00;2.00;;;;;24.11;52.50;101547.16;4912321;29;8860;-67
2022/08/23 10:04:21;;;;;;;;;2.75;2.75;;;;;24.20;51.93;101554.91;4910058;29;8888;-66
2022/08/23 10:06:51;;;;;;;;;4.50;4.50;;;;;24.26;52.29;101548.31;4920813;29;8882;-67
2022/08/23 10:09:29;;;;;;;;;3.00;3.00;;;;;24.32;52.09;101550.00;4900254;29;8871;-67
2022/08/23 10:11:58;;;;;;;;;3.75;3.00;;;;;24.45;52.28;101548.69;4904814;29;8848;-66
2022/08/23 10:14:27;;;;;;;;;4.50;3.75;;;;;24.51;52.09;101547.59;4894877;29;8852;-67
2022/08/23 10:17:32;;;;;;;;;3.50;3.50;;;;;24.61;51.64;101542.97;4943017;29;8915;-66
2022/08/23 10:20:24;;;;;;;;;3.75;3.75;;;;;24.74;51.57;101538.03;4909212;29;8851;-67
2022/08/23 10:23:10;;;;;;;;;4.00;3.00;;;;;24.85;51.78;101539.72;4899382;29;8849;-66
2022/08/23 10:25:57;;;;;;;;;4.50;4.50;;;;;24.91;51.71;101533.09;4939713;29;8864;-67
2022/08/23 10:31:38;;;;;;;;;4.50;4.00;;;;;25.16;51.24;101521.31;4902077;29;8973;-68
2022/08/23 10:34:34;;;;;;;;;6.50;5.00;;;;;25.17;50.40;101525.72;4924891;29;8875;-67
2022/08/23 10:37:11;;;;;;;;;3.00;3.00;;;;;25.10;51.23;101527.94;4908069;29;9661;-66
2022/08/23 10:39:47;;;;;;;;;3.75;3.00;;;;;25.04;51.25;101534.50;4911543;29;8874;-68
2022/08/23 10:42:57;;;;;;;;;3.00;3.00;;;;;24.94;51.35;101527.06;4909183;29;8860;-67
2022/08/23 10:45:28;;;;;;;;;4.50;4.00;;;;;24.90;52.23;101534.22;4838368;29;8868;-67
2022/08/23 10:48:18;;;;;;;;;4.00;4.00;;;;;24.91;52.67;101539.47;4916410;29;8848;-67
2022/08/23 10:50:54;;;;;;;;;5.00;5.00;;;;;24.89;52.72;101549.91;4908661;29;8835;-68
2022/08/23 10:53:45;;;;;;;;;4.75;4.75;;;;;24.82;52.26;101548.50;4904851;29;8875;-68
2022/08/23 10:56:19;;;;;;;;;5.00;4.75;;;;;24.78;52.55;101547.41;4910885;29;8851;-68
2022/08/23 10:58:56;;;;;;;;;1.00;1.00;;;;;24.80;52.30;101546.03;4938147;29;8988;-68
2022/08/23 11:01:30;;;;;;;;;4.25;4.25;;;;;24.79;52.33;101533.34;4931387;29;8941;-68
2022/08/23 11:04:11;;;;;;;;;5.50;5.50;;;;;24.78;52.57;101539.16;4912049;29;8939;-68
2022/08/23 11:07:13;;;;;;;;;6.00;6.00;;;;;24.80;52.23;101540.53;4912523;29;8853;-67
2022/08/23 11:09:51;;;;;;;;;6.75;6.75;;;;;24.83;52.25;101541.91;4930254;29;8863;-67
2022/08/23 11:12:25;;;;;;;;;6.00;6.00;;;;;24.85;52.26;101536.97;4914064;29;8872;-65
2022/08/23 11:15:50;;;;;;;;;4.00;4.00;;;;;24.90;52.68;101543.28;4903084;29;8859;-68
2022/08/23 11:18:35;;;;;;;;;3.00;3.00;;;;;24.92;52.03;101541.09;4857331;29;8867;-66
2022/08/23 11:21:05;;;;;;;;;5.75;4.50;;;;;24.93;51.92;101539.19;4857869;29;8828;-65
2022/08/23 11:23:53;;;;;;;;;5.50;4.25;;;;;25.04;52.13;101542.78;4896339;29;8913;-66
2022/08/23 11:26:21;;;;;;;;;3.50;3.50;;;;;25.18;51.80;101548.59;4914371;29;8837;-66
2022/08/23 11:28:50;;;;;;;;;5.25;5.25;;;;;25.22;51.84;101542.25;4907065;29;8891;-66
2022/08/23 11:31:26;;;;;;;;;5.00;5.00;;;;;25.30;52.08;101547.22;4910138;29;9742;-65
2022/08/23 11:34:03;;;;;;;;;5.25;5.25;;;;;25.38;51.33;101546.66;4913883;29;8900;-67
2022/08/23 11:36:34;;;;;;;;;8.00;6.50;;;;;25.45;51.40;101540.06;4923757;29;8860;-67
2022/08/23 11:39:07;;;;;;;;;6.50;4.75;;;;;25.52;50.68;101535.91;4914121;29;8891;-68
2022/08/23 11:41:55;;;;;;;;;3.25;3.25;;;;;25.60;51.03;101543.63;4914407;29;8844;-67
2022/08/23 11:44:34;;;;;;;;;5.00;5.00;;;;;25.60;50.44;101546.38;4904420;29;8925;-65
2022/08/23 11:47:04;;;;;;;;;3.00;3.00;;;;;25.65;50.38;101549.13;4907206;29;9506;-66
2022/08/23 11:49:49;;;;;;;;;4.75;4.75;;;;;25.70;50.22;101551.03;4914354;29;8854;-66
2022/08/23 11:52:36;;;;;;;;;2.75;2.75;;;;;25.82;49.79;101551.59;4907323;29;8855;-66
2022/08/23 11:55:27;;;;;;;;;3.25;3.25;;;;;25.98;48.79;101548.81;4909115;29;8970;-67
2022/08/23 11:58:15;;;;;;;;;2.50;2.50;;;;;26.08;48.18;101557.03;4907381;29;8959;-66
2022/08/23 12:01:08;;;;;;;;;7.00;4.75;;;;;26.10;47.70;101555.66;4914276;29;8855;-66
2022/08/23 12:03:50;;;;;;;;;3.75;3.75;;;;;26.19;47.53;101552.31;4912397;29;8874;-66
2022/08/23 12:06:35;;;;;;;;;3.00;3.00;;;;;26.22;47.56;101557.28;4913407;29;8845;-66
2022/08/23 12:09:12;;;;;;;;;3.25;3.25;;;;;26.14;46.89;101558.69;4903856;29;8852;-66
2022/08/23 12:11:54;;;;;;;;;2.50;2.50;;;;;26.09;47.52;101559.53;4924597;29;8857;-66
2022/08/23 12:14:29;;;;;;;;;2.50;2.50;;;;;26.11;47.81;101556.47;4913074;29;8873;-66
2022/08/23 12:17:11;;;;;;;;;4.00;4.00;;;;;26.11;47.81;101564.75;4907369;29;9554;-66